createdAt,value
2018-06-27T00:00:50.394Z,25.67
2018-06-27T00:03:18.255Z,25.10
2018-06-27T00:05:45.899Z,27.63
2018-06-27T00:08:14.195Z,23.00
2018-06-27T00:10:41.816Z,25.77
2018-06-27T00:13:09.564Z,23.13
2018-06-27T00:15:37.128Z,26.07
2018-06-27T00:18:04.585Z,24.90
2018-06-27T00:20:32.444Z,29.43
2018-06-27T00:23:00.225Z,26.87
2018-06-27T00:25:27.970Z,25.23
2018-06-27T00:27:55.607Z,29.37
2018-06-27T00:30:23.329Z,27.17
2018-06-27T00:32:50.987Z,29.10
2018-06-27T00:35:18.656Z,31.43
2018-06-27T00:37:46.188Z,26.13
2018-06-27T00:40:13.844Z,27.37
2018-06-27T00:42:41.620Z,26.73
2018-06-27T00:45:10.844Z,28.20
2018-06-27T00:47:38.518Z,28.77
2018-06-27T00:50:06.158Z,30.33
2018-06-27T00:52:33.707Z,31.27
2018-06-27T00:55:01.319Z,31.10
2018-06-27T00:57:29.428Z,32.97
2018-06-27T00:59:57.199Z,35.63
2018-06-27T01:02:24.843Z,30.77
2018-06-27T01:04:53.201Z,31.13
2018-06-27T01:07:20.959Z,31.77
2018-06-27T01:09:48.643Z,32.53
2018-06-27T01:12:16.302Z,32.80
2018-06-27T01:14:43.853Z,27.23
2018-06-27T01:17:11.536Z,29.37
2018-06-27T01:19:39.085Z,32.30
2018-06-27T01:22:06.777Z,34.23
2018-06-27T01:24:34.392Z,32.07
2018-06-27T01:27:02.118Z,28.93
2018-06-27T01:29:29.772Z,31.20
2018-06-27T01:31:57.361Z,30.17
2018-06-27T01:34:31.571Z,32.80
2018-06-27T01:36:59.195Z,34.40
2018-06-27T01:39:26.802Z,29.43
2018-06-27T01:41:54.532Z,30.13
2018-06-27T01:44:22.057Z,36.00
2018-06-27T01:46:49.706Z,28.70
2018-06-27T01:49:17.258Z,30.43
2018-06-27T01:51:44.804Z,27.80
2018-06-27T01:54:12.512Z,30.00
2018-06-27T01:56:40.166Z,29.43
2018-06-27T01:59:07.782Z,28.17
2018-06-27T02:01:35.392Z,29.47
2018-06-27T02:04:03.197Z,26.77
2018-06-27T02:06:30.889Z,33.23
2018-06-27T02:08:58.588Z,28.23
2018-06-27T02:11:26.863Z,32.90
2018-06-27T02:13:55.240Z,32.67
2018-06-27T02:16:22.819Z,29.80
2018-06-27T02:18:50.702Z,34.33
2018-06-27T02:21:18.440Z,34.67
2018-06-27T02:23:46.111Z,29.60
2018-06-27T02:26:13.879Z,33.53
2018-06-27T02:28:41.527Z,31.50
2018-06-27T02:31:09.228Z,30.80
2018-06-27T02:33:36.844Z,32.13
2018-06-27T02:36:04.392Z,33.13
2018-06-27T02:38:32.004Z,30.37
2018-06-27T02:40:59.587Z,32.03
2018-06-27T02:43:27.348Z,33.40
2018-06-27T02:45:54.994Z,34.33
2018-06-27T02:48:23.179Z,31.93
2018-06-27T02:50:50.899Z,28.27
2018-06-27T02:53:18.480Z,32.87
2018-06-27T02:55:46.207Z,33.13
2018-06-27T02:58:14.009Z,32.73
2018-06-27T03:00:41.805Z,33.57
2018-06-27T03:03:09.488Z,35.30
2018-06-27T03:05:37.052Z,31.13
2018-06-27T03:08:05.232Z,34.33
2018-06-27T03:10:32.876Z,31.93
2018-06-27T03:13:00.429Z,38.07
2018-06-27T03:15:27.875Z,34.43
2018-06-27T03:17:55.571Z,30.00
2018-06-27T03:20:23.181Z,32.43
2018-06-27T03:22:50.977Z,33.10
2018-06-27T03:25:19.030Z,28.27
2018-06-27T03:27:46.737Z,33.00
2018-06-27T03:30:14.400Z,30.57
2018-06-27T03:32:41.986Z,30.17
2018-06-27T03:35:09.542Z,30.53
2018-06-27T03:37:37.120Z,34.27
2018-06-27T03:40:04.884Z,31.07
2018-06-27T03:42:32.745Z,31.97
2018-06-27T03:45:00.301Z,33.13
2018-06-27T03:47:28.136Z,33.33
2018-06-27T03:49:55.707Z,30.23
2018-06-27T03:52:23.382Z,29.10
2018-06-27T03:54:51.682Z,28.17
2018-06-27T03:57:19.348Z,28.13
2018-06-27T03:59:46.901Z,31.90
2018-06-27T04:02:14.555Z,31.33
2018-06-27T04:04:42.105Z,33.10
2018-06-27T04:07:09.987Z,31.07
2018-06-27T04:09:37.548Z,32.30
2018-06-27T04:12:05.235Z,33.80
2018-06-27T04:14:33.082Z,33.33
2018-06-27T04:17:00.755Z,32.67
2018-06-27T04:19:28.503Z,36.70
2018-06-27T04:21:56.040Z,35.13
2018-06-27T04:24:23.660Z,34.03
2018-06-27T04:26:51.400Z,33.83
2018-06-27T04:29:19.306Z,31.30
2018-06-27T04:31:46.866Z,29.57
2018-06-27T04:34:14.456Z,32.93
2018-06-27T04:36:41.984Z,32.93
2018-06-27T04:39:10.758Z,38.73
2018-06-27T04:41:38.908Z,32.07
2018-06-27T04:44:06.598Z,35.93
2018-06-27T04:46:34.791Z,31.00
2018-06-27T04:49:02.548Z,31.00
2018-06-27T04:51:30.495Z,32.20
2018-06-27T04:53:58.163Z,32.20
2018-06-27T04:56:25.875Z,35.07
2018-06-27T04:58:53.429Z,30.13
2018-06-27T05:01:20.975Z,33.73
2018-06-27T05:03:48.551Z,32.47
2018-06-27T05:06:16.191Z,32.37
2018-06-27T05:08:43.748Z,31.43
2018-06-27T05:11:11.371Z,30.97
2018-06-27T05:13:39.184Z,30.43
2018-06-27T05:16:06.907Z,32.97
2018-06-27T05:18:34.668Z,26.53
2018-06-27T05:21:02.397Z,30.53
2018-06-27T05:23:30.056Z,32.77
2018-06-27T05:25:57.624Z,29.87
2018-06-27T05:28:25.164Z,30.17
2018-06-27T05:30:52.755Z,29.97
2018-06-27T05:33:20.365Z,31.07
2018-06-27T05:35:48.024Z,30.40
2018-06-27T05:38:15.780Z,27.40
2018-06-27T05:40:43.584Z,28.23
2018-06-27T05:43:11.433Z,28.27
2018-06-27T05:45:39.087Z,28.13
2018-06-27T05:48:06.899Z,29.03
2018-06-27T05:50:34.667Z,26.37
2018-06-27T05:53:02.749Z,32.00
2018-06-27T05:55:30.327Z,25.90
2018-06-27T05:57:58.275Z,25.63
2018-06-27T06:00:26.036Z,24.77
2018-06-27T06:02:53.787Z,24.43
2018-06-27T06:05:21.412Z,26.30
2018-06-27T06:07:49.544Z,22.43
2018-06-27T06:10:17.311Z,24.10
2018-06-27T06:12:45.064Z,21.57
2018-06-27T06:15:12.816Z,22.53
2018-06-27T06:17:40.375Z,23.50
2018-06-27T06:20:07.955Z,24.00
2018-06-27T06:22:35.500Z,24.07
2018-06-27T06:25:03.466Z,25.53
2018-06-27T06:27:31.002Z,25.60
2018-06-27T06:29:58.577Z,27.13
2018-06-27T06:32:26.375Z,25.87
2018-06-27T06:34:53.988Z,21.77
2018-06-27T06:37:21.593Z,22.30
2018-06-27T06:39:49.597Z,23.10
2018-06-27T06:42:17.751Z,24.63
2018-06-27T06:44:45.408Z,21.80
2018-06-27T06:47:13.051Z,23.07
2018-06-27T06:49:40.985Z,22.03
2018-06-27T06:52:08.499Z,20.37
2018-06-27T06:54:36.036Z,20.93
2018-06-27T06:57:03.968Z,17.87
2018-06-27T06:59:31.651Z,18.90
2018-06-27T07:01:59.275Z,16.03
2018-06-27T07:04:26.763Z,15.47
2018-06-27T07:06:54.341Z,18.90
2018-06-27T07:09:22.004Z,16.90
2018-06-27T07:11:49.603Z,17.87
2018-06-27T07:14:17.263Z,19.23
2018-06-27T07:16:44.916Z,15.75
2018-06-27T07:19:12.679Z,16.30
2018-06-27T07:21:40.219Z,15.20
2018-06-27T07:24:07.781Z,16.27
2018-06-27T07:26:35.344Z,14.13
2018-06-27T07:29:03.592Z,16.05
2018-06-27T07:31:31.131Z,15.05
2018-06-27T07:33:58.946Z,13.80
2018-06-27T07:36:26.515Z,14.95
2018-06-27T07:38:54.099Z,13.40
2018-06-27T07:41:21.613Z,12.95
2018-06-27T07:43:49.189Z,13.28
2018-06-27T07:46:16.796Z,12.65
2018-06-27T07:48:44.348Z,13.00
2018-06-27T07:51:11.893Z,11.90
2018-06-27T07:53:39.472Z,12.43
2018-06-27T07:56:07.458Z,11.68
2018-06-27T07:58:35.309Z,10.50
2018-06-27T08:01:02.885Z,11.68
2018-06-27T08:03:30.446Z,11.08
2018-06-27T08:05:58.047Z,9.90
2018-06-27T08:08:25.643Z,9.60
2018-06-27T08:10:53.304Z,10.68
2018-06-27T08:13:20.844Z,9.23
2018-06-27T08:15:48.404Z,9.75
2018-06-27T08:18:16.086Z,10.23
2018-06-27T08:20:43.676Z,9.98
2018-06-27T08:23:11.257Z,8.85
2018-06-27T08:25:43.511Z,8.93
2018-06-27T08:28:11.217Z,9.33
2018-06-27T08:30:38.923Z,9.63
2018-06-27T08:33:06.826Z,7.92
2018-06-27T08:35:34.508Z,7.65
2018-06-27T08:38:02.065Z,7.78
2018-06-27T08:40:29.707Z,9.08
2018-06-27T08:42:57.560Z,8.50
2018-06-27T08:45:25.120Z,9.50
2018-06-27T08:47:52.809Z,8.68
2018-06-27T08:50:20.698Z,7.35
2018-06-27T08:52:49.491Z,9.20
2018-06-27T08:55:17.288Z,6.95
2018-06-27T08:57:45.204Z,6.37
2018-06-27T09:00:12.905Z,8.05
2018-06-27T09:02:40.789Z,9.43
2018-06-27T09:05:08.516Z,6.47
2018-06-27T09:07:36.421Z,9.38
2018-06-27T09:10:03.931Z,8.53
2018-06-27T09:12:31.513Z,8.08
2018-06-27T09:14:59.136Z,7.58
2018-06-27T09:17:26.722Z,7.78
2018-06-27T09:19:54.273Z,10.43
2018-06-27T09:22:21.985Z,7.50
2018-06-27T09:24:49.927Z,6.70
2018-06-27T09:27:17.979Z,6.62
2018-06-27T09:29:45.917Z,6.05
2018-06-27T09:32:13.640Z,6.25
2018-06-27T09:34:41.372Z,5.53
2018-06-27T09:37:09.219Z,6.67
2018-06-27T09:39:36.875Z,6.70
2018-06-27T09:42:04.448Z,7.30
2018-06-27T09:44:32.253Z,5.53
2018-06-27T09:46:59.775Z,5.65
2018-06-27T09:49:27.344Z,5.25
2018-06-27T09:51:54.869Z,5.78
2018-06-27T09:54:22.801Z,6.72
2018-06-27T09:56:50.451Z,4.87
2018-06-27T09:59:18.000Z,7.17
2018-06-27T10:01:45.684Z,5.50
2018-06-27T10:04:13.412Z,4.33
2018-06-27T10:06:40.957Z,5.08
2018-06-27T10:09:09.528Z,5.17
2018-06-27T10:11:38.109Z,4.90
2018-06-27T10:14:06.219Z,4.45
2018-06-27T10:16:33.854Z,5.03
2018-06-27T10:19:01.684Z,5.97
2018-06-27T10:21:29.307Z,4.53
2018-06-27T10:23:57.343Z,4.65
2018-06-27T10:26:24.943Z,5.95
2018-06-27T10:28:52.508Z,6.70
2018-06-27T10:31:20.572Z,8.88
2018-06-27T10:33:48.152Z,9.65
2018-06-27T10:36:15.785Z,6.95
2018-06-27T10:38:43.296Z,8.03
2018-06-27T10:41:10.907Z,8.83
2018-06-27T10:43:38.557Z,8.58
2018-06-27T10:46:06.514Z,7.55
2018-06-27T10:48:34.328Z,9.03
2018-06-27T10:51:02.155Z,9.48
2018-06-27T10:53:29.847Z,7.78
2018-06-27T10:55:57.889Z,7.17
2018-06-27T10:58:25.454Z,8.93
2018-06-27T11:00:53.056Z,9.73
2018-06-27T11:03:20.614Z,7.65
2018-06-27T11:05:48.182Z,9.05
2018-06-27T11:08:15.852Z,8.75
2018-06-27T11:10:43.436Z,11.93
2018-06-27T11:13:10.984Z,6.15
2018-06-27T11:15:38.526Z,7.75
2018-06-27T11:18:06.200Z,6.25
2018-06-27T11:20:38.380Z,6.53
2018-06-27T11:23:06.004Z,6.95
2018-06-27T11:25:33.609Z,4.45
2018-06-27T11:28:01.188Z,5.90
2018-06-27T11:30:28.756Z,7.12
2018-06-27T11:32:56.337Z,6.60
2018-06-27T11:35:23.888Z,4.55
2018-06-27T11:37:51.435Z,4.12
2018-06-27T11:40:19.210Z,5.05
2018-06-27T11:42:47.351Z,5.53
2018-06-27T11:45:15.084Z,3.98
2018-06-27T11:47:42.643Z,6.47
2018-06-27T11:50:10.286Z,5.65
2018-06-27T11:52:37.980Z,5.08
2018-06-27T11:55:10.599Z,4.58
2018-06-27T11:57:39.053Z,5.22
2018-06-27T12:00:06.769Z,7.62
2018-06-27T12:02:34.639Z,6.20
2018-06-27T12:05:02.199Z,7.47
2018-06-27T12:07:29.764Z,3.90
2018-06-27T12:09:57.428Z,4.35
2018-06-27T12:12:25.013Z,4.33
2018-06-27T12:14:52.668Z,3.83
2018-06-27T12:17:20.203Z,5.12
2018-06-27T12:19:47.772Z,5.15
2018-06-27T12:22:15.580Z,3.30
2018-06-27T12:24:51.151Z,8.03
2018-06-27T12:27:20.328Z,3.95
2018-06-27T12:29:49.139Z,5.22
2018-06-27T12:32:16.784Z,3.85
2018-06-27T12:34:44.453Z,4.47
2018-06-27T12:37:12.228Z,4.83
2018-06-27T12:39:40.016Z,3.83
2018-06-27T12:42:07.879Z,3.35
2018-06-27T12:44:35.447Z,7.87
2018-06-27T12:47:03.115Z,5.78
2018-06-27T12:49:30.836Z,5.22
2018-06-27T12:51:58.431Z,6.80
2018-06-27T12:54:26.098Z,4.93
2018-06-27T12:56:53.597Z,3.95
2018-06-27T12:59:21.440Z,3.80
2018-06-27T13:01:50.028Z,5.63
2018-06-27T13:04:17.726Z,5.43
2018-06-27T13:06:45.512Z,3.20
2018-06-27T13:09:13.394Z,5.00
2018-06-27T13:11:41.307Z,5.10
2018-06-27T13:14:10.915Z,4.93
2018-06-27T13:16:38.680Z,5.83
2018-06-27T13:19:07.730Z,4.30
2018-06-27T13:21:35.316Z,7.97
2018-06-27T13:24:02.994Z,5.47
2018-06-27T13:26:30.596Z,8.27
2018-06-27T13:28:58.270Z,5.80
2018-06-27T13:31:25.964Z,7.00
2018-06-27T13:33:53.734Z,5.03
2018-06-27T13:36:21.288Z,7.43
2018-06-27T13:38:48.915Z,6.43
2018-06-27T13:41:16.534Z,4.17
2018-06-27T13:43:44.240Z,4.03
2018-06-27T13:46:11.964Z,5.33
2018-06-27T13:48:39.576Z,7.60
2018-06-27T13:51:07.219Z,3.03
2018-06-27T13:53:34.887Z,3.57
2018-06-27T13:56:02.569Z,4.23
2018-06-27T13:58:30.300Z,5.13
2018-06-27T14:00:58.476Z,4.60
2018-06-27T14:03:26.351Z,2.93
2018-06-27T14:05:53.936Z,5.00
2018-06-27T14:08:21.869Z,4.63
2018-06-27T14:10:49.437Z,6.50
2018-06-27T14:13:17.113Z,4.13
2018-06-27T14:15:44.760Z,4.13
2018-06-27T14:18:12.472Z,7.43
2018-06-27T14:20:40.077Z,2.97
2018-06-27T14:23:07.743Z,5.57
2018-06-27T14:25:35.436Z,5.03
2018-06-27T14:28:03.165Z,4.00
2018-06-27T14:30:30.793Z,4.03
2018-06-27T14:32:58.386Z,5.50
2018-06-27T14:35:26.018Z,4.53
2018-06-27T14:37:54.508Z,3.37
2018-06-27T14:40:22.221Z,3.73
2018-06-27T14:42:49.909Z,5.43
2018-06-27T14:45:17.635Z,4.20
2018-06-27T14:47:45.397Z,6.03
2018-06-27T14:50:13.036Z,3.63
2018-06-27T14:52:40.640Z,5.90
2018-06-27T14:55:09.044Z,3.53
2018-06-27T14:57:36.968Z,3.97
2018-06-27T15:00:06.057Z,5.97
2018-06-27T15:02:33.707Z,5.60
2018-06-27T15:05:01.473Z,6.73
2018-06-27T15:07:29.079Z,5.57
2018-06-27T15:09:56.733Z,4.57
2018-06-27T15:12:24.435Z,3.47
2018-06-27T15:14:52.084Z,4.03
2018-06-27T15:17:20.032Z,4.37
2018-06-27T15:19:47.612Z,3.53
2018-06-27T15:22:15.225Z,4.10
2018-06-27T15:24:42.891Z,3.80
2018-06-27T15:27:10.641Z,3.03
2018-06-27T15:29:38.192Z,3.87
2018-06-27T15:32:05.879Z,4.67
2018-06-27T15:34:33.460Z,5.53
2018-06-27T15:37:01.180Z,6.30
2018-06-27T15:39:28.945Z,5.33
2018-06-27T15:41:56.604Z,5.80
2018-06-27T15:44:24.184Z,4.90
2018-06-27T15:46:51.887Z,2.67
2018-06-27T15:49:20.088Z,6.00
2018-06-27T15:51:47.768Z,3.03
2018-06-27T15:54:15.585Z,3.17
2018-06-27T15:56:43.150Z,7.17
2018-06-27T15:59:10.753Z,4.70
2018-06-27T16:01:38.332Z,4.13
2018-06-27T16:04:05.936Z,4.23
2018-06-27T16:06:33.605Z,3.20
2018-06-27T16:09:01.218Z,7.23
2018-06-27T16:11:28.843Z,3.70
2018-06-27T16:13:56.407Z,9.13
2018-06-27T16:16:24.062Z,4.43
2018-06-27T16:18:51.677Z,4.10
2018-06-27T16:21:19.297Z,4.67
2018-06-27T16:23:46.900Z,4.93
2018-06-27T16:26:14.580Z,2.50
2018-06-27T16:28:42.248Z,4.77
2018-06-27T16:31:09.998Z,4.07
2018-06-27T16:33:37.689Z,3.43
2018-06-27T16:36:05.456Z,4.87
2018-06-27T16:38:33.051Z,5.17
2018-06-27T16:41:00.736Z,4.70
2018-06-27T16:43:28.495Z,5.33
2018-06-27T16:45:56.333Z,3.80
2018-06-27T16:48:23.882Z,4.40
2018-06-27T16:50:51.571Z,4.43
2018-06-27T16:53:19.923Z,4.03
2018-06-27T16:55:47.540Z,5.17
2018-06-27T16:58:15.233Z,7.57
2018-06-27T17:00:42.859Z,4.93
2018-06-27T17:03:10.512Z,4.47
2018-06-27T17:05:38.216Z,7.17
2018-06-27T17:08:05.944Z,4.43
2018-06-27T17:10:33.632Z,3.00
2018-06-27T17:13:01.325Z,4.00
2018-06-27T17:15:28.888Z,5.70
2018-06-27T17:17:56.506Z,3.73
2018-06-27T17:20:24.099Z,3.73
2018-06-27T17:22:51.843Z,2.90
2018-06-27T17:25:19.489Z,7.53
2018-06-27T17:27:47.297Z,7.23
2018-06-27T17:30:14.744Z,5.30
2018-06-27T17:32:42.372Z,4.80
2018-06-27T17:35:09.992Z,3.10
2018-06-27T17:37:37.719Z,4.30
2018-06-27T17:40:09.974Z,4.50
2018-06-27T17:42:37.987Z,4.13
2018-06-27T17:45:05.808Z,4.70
2018-06-27T17:47:33.894Z,3.93
2018-06-27T17:50:01.638Z,2.63
2018-06-27T17:52:29.400Z,4.67
2018-06-27T17:54:56.991Z,5.13
2018-06-27T17:57:24.628Z,2.13
2018-06-27T17:59:52.219Z,3.67
2018-06-27T18:02:19.877Z,2.77
2018-06-27T18:04:47.719Z,2.00
2018-06-27T18:07:15.462Z,1.70
2018-06-27T18:09:43.152Z,2.93
2018-06-27T18:12:10.956Z,3.73
2018-06-27T18:14:38.893Z,1.80
2018-06-27T18:17:06.549Z,2.30
2018-06-27T18:19:34.257Z,2.97
2018-06-27T18:22:01.879Z,4.47
2018-06-27T18:24:29.629Z,3.90
2018-06-27T18:26:57.581Z,1.73
2018-06-27T18:29:25.268Z,2.70
2018-06-27T18:31:53.035Z,2.60
2018-06-27T18:34:20.931Z,2.23
2018-06-27T18:36:48.734Z,1.70
2018-06-27T18:39:16.562Z,2.83
2018-06-27T18:41:44.656Z,2.50
2018-06-27T18:44:12.377Z,1.73
2018-06-27T18:46:40.208Z,2.63
2018-06-27T18:49:07.828Z,3.13
2018-06-27T18:51:35.528Z,2.33
2018-06-27T18:54:03.225Z,1.87
2018-06-27T18:56:30.998Z,2.23
2018-06-27T18:58:58.821Z,5.77
2018-06-27T19:01:26.817Z,2.03
2018-06-27T19:03:54.744Z,2.17
2018-06-27T19:06:22.440Z,1.83
2018-06-27T19:08:51.672Z,1.90
2018-06-27T19:11:19.718Z,3.93
2018-06-27T19:13:47.581Z,6.20
2018-06-27T19:16:15.308Z,1.60
2018-06-27T19:21:35.534Z,1.60
2018-06-27T19:24:03.151Z,2.70
2018-06-27T19:26:30.872Z,3.07
2018-06-27T19:28:58.536Z,2.93
2018-06-27T19:31:26.245Z,4.93
2018-06-27T19:33:54.170Z,2.13
2018-06-27T19:36:21.901Z,2.97
2018-06-27T19:38:51.949Z,2.03
2018-06-27T19:41:19.975Z,3.70
2018-06-27T19:43:47.521Z,2.13
2018-06-27T19:46:15.158Z,2.13
2018-06-27T19:48:42.939Z,2.63
2018-06-27T19:51:10.661Z,4.43
2018-06-27T19:53:38.223Z,3.33
2018-06-27T19:56:05.842Z,3.83
2018-06-27T19:58:33.481Z,3.80
2018-06-27T20:01:01.200Z,2.27
2018-06-27T20:03:29.221Z,2.93
2018-06-27T20:05:57.185Z,3.27
2018-06-27T20:08:24.989Z,3.10
2018-06-27T20:10:55.372Z,2.37
2018-06-27T20:13:23.736Z,3.23
2018-06-27T20:15:55.224Z,2.30
2018-06-27T20:18:23.319Z,3.53
2018-06-27T20:20:50.999Z,3.40
2018-06-27T20:23:19.003Z,3.47
2018-06-27T20:25:46.583Z,2.00
2018-06-27T20:28:14.208Z,2.73
2018-06-27T20:30:41.904Z,4.27
2018-06-27T20:33:09.574Z,4.03
2018-06-27T20:35:37.382Z,2.63
2018-06-27T20:38:05.349Z,2.87
2018-06-27T20:40:33.250Z,3.00
2018-06-27T20:43:01.460Z,3.00
2018-06-27T20:45:29.253Z,2.30
2018-06-27T20:47:56.860Z,2.30
2018-06-27T20:50:24.511Z,3.63
2018-06-27T20:52:52.169Z,3.53
2018-06-27T20:55:19.873Z,5.17
2018-06-27T20:57:47.608Z,2.50
2018-06-27T21:00:15.909Z,3.97
2018-06-27T21:02:43.827Z,3.27
2018-06-27T21:05:11.760Z,4.20
2018-06-27T21:07:39.453Z,3.00
2018-06-27T21:10:07.142Z,3.00
2018-06-27T21:12:34.700Z,3.37
2018-06-27T21:15:02.490Z,4.67
2018-06-27T21:17:30.267Z,3.77
2018-06-27T21:19:57.913Z,3.63
2018-06-27T21:22:25.501Z,5.73
2018-06-27T21:24:53.352Z,3.47
2018-06-27T21:27:21.408Z,5.43
2018-06-27T21:29:49.064Z,4.40
2018-06-27T21:32:17.007Z,4.60
2018-06-27T21:34:45.604Z,6.97
2018-06-27T21:37:13.362Z,4.67
2018-06-27T21:39:42.060Z,3.23
2018-06-27T21:42:09.705Z,5.93
2018-06-27T21:47:31.489Z,4.93
2018-06-27T21:49:59.252Z,7.97
2018-06-27T21:52:26.911Z,3.30
2018-06-27T21:54:54.732Z,5.40
2018-06-27T21:57:22.387Z,3.20
2018-06-27T21:59:50.104Z,5.50
2018-06-27T22:02:17.773Z,3.60
2018-06-27T22:04:45.515Z,4.10
2018-06-27T22:07:13.381Z,4.97
2018-06-27T22:09:40.926Z,6.07
2018-06-27T22:12:08.550Z,4.10
2018-06-27T22:14:40.024Z,2.03
2018-06-27T22:17:07.720Z,3.20
2018-06-27T22:19:35.321Z,3.13
2018-06-27T22:22:02.867Z,4.07
2018-06-27T22:24:30.484Z,3.37
2018-06-27T22:26:58.372Z,2.80
2018-06-27T22:29:26.114Z,2.90
2018-06-27T22:31:54.377Z,3.53
2018-06-27T22:34:22.141Z,2.27
2018-06-27T22:36:50.277Z,5.50
2018-06-27T22:39:18.498Z,3.80
2018-06-27T22:41:46.129Z,3.27
2018-06-27T22:44:14.568Z,4.20
2018-06-27T22:46:42.108Z,4.23
2018-06-27T22:49:09.667Z,2.60
2018-06-27T22:51:37.231Z,3.07
2018-06-27T22:54:04.830Z,5.67
2018-06-27T22:56:32.556Z,2.43
2018-06-27T22:59:00.361Z,3.90
2018-06-27T23:01:28.126Z,3.40
2018-06-27T23:03:56.365Z,3.10
2018-06-27T23:06:24.002Z,3.27
2018-06-27T23:08:51.591Z,4.37
2018-06-27T23:11:19.603Z,2.87
2018-06-27T23:13:47.424Z,4.40
2018-06-27T23:16:15.173Z,3.97
2018-06-27T23:18:43.612Z,3.30
2018-06-27T23:21:11.185Z,3.40
2018-06-27T23:23:38.740Z,5.80
2018-06-27T23:26:06.468Z,3.30
2018-06-27T23:28:34.135Z,4.27
2018-06-27T23:31:01.956Z,3.67
2018-06-27T23:33:29.582Z,4.37
2018-06-27T23:35:57.257Z,6.37
2018-06-27T23:38:24.819Z,2.83
2018-06-27T23:40:52.435Z,3.27
2018-06-27T23:43:19.992Z,7.20
2018-06-27T23:45:47.615Z,4.07
2018-06-27T23:48:15.175Z,5.20
2018-06-27T23:50:42.720Z,3.33
2018-06-27T23:53:10.423Z,3.47
2018-06-27T23:55:38.172Z,4.47
2018-06-27T23:58:06.021Z,10.23
